createdAt,value
2023-05-01T00:01:34.909Z,100176.69
2023-05-01T00:04:21.940Z,100186.97
2023-05-01T00:06:48.755Z,100170.00
2023-05-01T00:09:43.516Z,100173.94
2023-05-01T00:12:41.399Z,100169.16
2023-05-01T00:15:14.161Z,100170.88
2023-05-01T00:17:40.777Z,100167.84
2023-05-01T00:20:08.692Z,100165.53
2023-05-01T00:22:35.239Z,100167.47
2023-05-01T00:25:01.792Z,100168.16
2023-05-01T00:27:28.375Z,100162.37
2023-05-01T00:30:00.356Z,100160.91
2023-05-01T00:32:26.996Z,100159.22
2023-05-01T00:34:53.591Z,100161.31
2023-05-01T00:37:20.142Z,100159.19
2023-05-01T00:40:06.533Z,100167.59
2023-05-01T00:43:04.395Z,100162.53
2023-05-01T00:45:31.128Z,100165.50
2023-05-01T00:47:57.933Z,100169.19
2023-05-01T00:50:24.562Z,100171.19
2023-05-01T00:52:51.141Z,100170.59
2023-05-01T00:55:17.900Z,100167.66
2023-05-01T00:57:44.573Z,100169.75
2023-05-01T01:00:33.234Z,100168.06
2023-05-01T01:03:00.003Z,100175.50
2023-05-01T01:05:30.282Z,100172.37
2023-05-01T01:12:44.219Z,100180.00
2023-05-01T01:15:25.736Z,100174.78
2023-05-01T01:18:19.337Z,100178.38
2023-05-01T01:21:17.225Z,100174.03
2023-05-01T01:24:13.494Z,100174.44
2023-05-01T01:26:57.374Z,100175.31
2023-05-01T01:29:56.575Z,100167.81
2023-05-01T01:32:51.132Z,100168.66
2023-05-01T01:35:25.336Z,100163.16
2023-05-01T01:38:35.502Z,100155.44
2023-05-01T01:44:24.568Z,100162.44
2023-05-01T01:46:54.298Z,100162.63
2023-05-01T01:49:24.951Z,100164.94
2023-05-01T01:51:53.824Z,100162.25
2023-05-01T01:54:35.648Z,100165.87
2023-05-01T01:57:19.561Z,100162.56
2023-05-01T01:59:47.824Z,100159.16
2023-05-01T02:02:17.258Z,100153.00
2023-05-01T02:04:45.723Z,100159.75
2023-05-01T02:07:22.763Z,100161.88
2023-05-01T02:10:02.438Z,100157.09
2023-05-01T02:12:44.696Z,100151.63
2023-05-01T02:15:12.915Z,100155.25
2023-05-01T02:17:41.649Z,100156.81
2023-05-01T02:20:12.676Z,100151.72
2023-05-01T02:22:43.740Z,100156.78
2023-05-01T02:25:12.343Z,100154.97
2023-05-01T02:27:50.964Z,100154.28
2023-05-01T02:30:19.030Z,100153.34
2023-05-01T02:32:45.789Z,100158.38
2023-05-01T02:35:12.510Z,100165.56
2023-05-01T02:37:45.153Z,100160.41
2023-05-01T02:40:38.762Z,100164.69
2023-05-01T02:43:12.633Z,100166.00
2023-05-01T02:45:40.403Z,100162.84
2023-05-01T02:48:10.201Z,100157.34
2023-05-01T02:50:40.679Z,100155.37
2023-05-01T02:53:08.230Z,100164.78
2023-05-01T02:55:35.919Z,100163.97
2023-05-01T02:58:03.022Z,100164.66
2023-05-01T03:00:30.000Z,100167.91
2023-05-01T03:02:56.752Z,100164.94
2023-05-01T03:05:23.464Z,100177.91
2023-05-01T03:07:51.200Z,100175.03
2023-05-01T03:10:18.065Z,100183.00
2023-05-01T03:16:15.430Z,100181.09
2023-05-01T03:18:42.022Z,100179.25
2023-05-01T03:21:08.916Z,100178.63
2023-05-01T03:23:35.569Z,100186.41
2023-05-01T03:26:02.132Z,100185.56
2023-05-01T03:28:28.679Z,100188.53
2023-05-01T03:33:50.786Z,100180.00
2023-05-01T03:36:17.547Z,100183.94
2023-05-01T03:38:44.221Z,100191.97
2023-05-01T03:41:23.756Z,100183.31
2023-05-01T03:43:50.560Z,100188.31
2023-05-01T03:46:48.259Z,100190.97
2023-05-01T03:49:45.938Z,100186.25
2023-05-01T03:52:17.803Z,100188.88
2023-05-01T03:54:44.640Z,100188.31
2023-05-01T03:57:11.440Z,100174.22
2023-05-01T03:59:38.131Z,100178.50
2023-05-01T04:02:05.187Z,100183.88
2023-05-01T04:04:32.042Z,100190.25
2023-05-01T04:06:58.814Z,100191.16
2023-05-01T04:09:25.647Z,100189.91
2023-05-01T04:11:52.217Z,100183.78
2023-05-01T04:14:18.743Z,100194.78
2023-05-01T04:16:45.334Z,100187.38
2023-05-01T04:19:11.951Z,100188.25
2023-05-01T04:21:50.706Z,100190.47
2023-05-01T04:24:48.034Z,100192.03
2023-05-01T04:27:19.585Z,100193.37
2023-05-01T04:29:46.284Z,100191.09
2023-05-01T04:32:12.826Z,100192.13
2023-05-01T04:34:39.425Z,100199.50
2023-05-01T04:37:11.082Z,100199.97
2023-05-01T04:39:37.749Z,100192.63
2023-05-01T04:42:04.802Z,100204.22
2023-05-01T04:44:34.127Z,100201.50
2023-05-01T04:47:07.222Z,100206.81
2023-05-01T04:49:34.100Z,100206.03
2023-05-01T04:52:17.425Z,100206.66
2023-05-01T04:54:43.955Z,100209.78
2023-05-01T04:57:10.634Z,100217.47
2023-05-01T04:59:37.168Z,100208.94
2023-05-01T05:02:22.324Z,100207.91
2023-05-01T05:05:17.025Z,100206.50
2023-05-01T05:07:43.576Z,100215.53
2023-05-01T05:10:10.438Z,100212.19
2023-05-01T05:12:37.017Z,100212.81
2023-05-01T05:15:03.705Z,100215.62
2023-05-01T05:17:30.666Z,100211.88
2023-05-01T05:19:57.484Z,100217.69
2023-05-01T05:22:29.556Z,100217.47
2023-05-01T05:24:56.691Z,100215.41
2023-05-01T05:27:23.267Z,100211.59
2023-05-01T05:29:50.497Z,100216.41
2023-05-01T05:33:03.953Z,100212.31
2023-05-01T05:35:56.791Z,100217.75
2023-05-01T05:38:23.433Z,100219.63
2023-05-01T05:40:50.107Z,100223.31
2023-05-01T05:43:16.684Z,100222.09
2023-05-01T05:45:43.554Z,100227.81
2023-05-01T05:48:10.250Z,100222.75
2023-05-01T05:50:36.860Z,100225.06
2023-05-01T05:53:04.723Z,100226.22
2023-05-01T05:55:31.294Z,100228.34
2023-05-01T05:57:57.848Z,100225.44
2023-05-01T06:00:24.470Z,100227.50
2023-05-01T06:02:51.572Z,100236.31
2023-05-01T06:07:53.473Z,100233.66
2023-05-01T06:10:20.201Z,100233.16
2023-05-01T06:12:53.885Z,100238.78
2023-05-01T06:15:27.156Z,100242.56
2023-05-01T06:17:53.842Z,100238.28
2023-05-01T06:27:09.737Z,100243.38
2023-05-01T06:29:36.842Z,100244.78
2023-05-01T06:32:04.362Z,100249.88
2023-05-01T06:34:31.196Z,100253.09
2023-05-01T06:36:57.736Z,100247.97
2023-05-01T06:39:24.292Z,100241.75
2023-05-01T06:41:50.904Z,100245.44
2023-05-01T06:44:17.470Z,100250.06
2023-05-01T06:46:44.141Z,100254.53
2023-05-01T06:49:11.109Z,100247.53
2023-05-01T06:51:37.753Z,100249.56
2023-05-01T06:54:07.625Z,100249.63
2023-05-01T06:56:49.261Z,100246.94
2023-05-01T06:59:15.926Z,100242.47
2023-05-01T07:01:42.539Z,100247.97
2023-05-01T07:04:10.870Z,100248.03
2023-05-01T07:06:50.599Z,100236.87
2023-05-01T07:09:51.703Z,100238.41
2023-05-01T07:12:18.373Z,100244.56
2023-05-01T07:14:44.963Z,100253.72
2023-05-01T07:17:11.506Z,100248.44
2023-05-01T07:19:38.041Z,100254.66
2023-05-01T07:22:05.047Z,100258.69
2023-05-01T07:24:31.641Z,100255.41
2023-05-01T07:26:58.394Z,100260.97
2023-05-01T07:29:25.241Z,100256.25
2023-05-01T07:31:52.096Z,100254.13
2023-05-01T07:34:19.677Z,100250.41
2023-05-01T07:36:46.454Z,100253.34
2023-05-01T07:39:16.084Z,100253.03
2023-05-01T07:41:42.716Z,100253.66
2023-05-01T07:44:09.483Z,100258.72
2023-05-01T07:46:37.209Z,100255.78
2023-05-01T07:49:05.395Z,100257.41
2023-05-01T07:51:32.771Z,100255.13
2023-05-01T07:54:04.279Z,100263.56
2023-05-01T07:56:31.541Z,100256.44
2023-05-01T07:58:59.192Z,100262.78
2023-05-01T08:01:26.124Z,100254.47
2023-05-01T08:03:53.244Z,100256.72
2023-05-01T08:06:19.970Z,100262.88
2023-05-01T08:08:46.578Z,100253.47
2023-05-01T08:11:13.250Z,100263.69
2023-05-01T08:13:39.800Z,100250.28
2023-05-01T08:16:06.576Z,100256.56
2023-05-01T08:18:33.202Z,100256.69
2023-05-01T08:20:59.883Z,100254.22
2023-05-01T08:23:26.442Z,100265.75
2023-05-01T08:28:35.793Z,100259.62
2023-05-01T08:31:02.444Z,100251.22
2023-05-01T08:33:29.166Z,100261.34
2023-05-01T08:35:55.718Z,100258.31
2023-05-01T08:38:22.266Z,100256.34
2023-05-01T08:41:58.430Z,100249.81
2023-05-01T08:44:46.291Z,100251.19
2023-05-01T08:47:19.774Z,100253.25
2023-05-01T08:49:47.334Z,100248.06
2023-05-01T08:52:15.489Z,100252.34
2023-05-01T08:54:47.040Z,100258.44
2023-05-01T08:57:13.825Z,100254.37
2023-05-01T08:59:41.205Z,100250.09
2023-05-01T09:02:11.123Z,100250.25
2023-05-01T09:04:40.325Z,100246.97
2023-05-01T09:07:07.849Z,100245.78
2023-05-01T09:09:34.609Z,100246.34
2023-05-01T09:12:24.112Z,100250.47
2023-05-01T09:14:55.885Z,100251.19
2023-05-01T09:17:24.015Z,100249.44
2023-05-01T09:19:51.265Z,100247.47
2023-05-01T09:22:18.730Z,100239.06
2023-05-01T09:24:45.969Z,100243.28
2023-05-01T09:27:13.324Z,100232.25
2023-05-01T09:29:40.846Z,100238.25
2023-05-01T09:32:30.565Z,100244.69
2023-05-01T09:35:14.362Z,100239.63
2023-05-01T09:37:41.509Z,100232.78
2023-05-01T09:40:10.235Z,100236.69
2023-05-01T09:42:38.761Z,100233.63
2023-05-01T09:45:12.057Z,100239.56
2023-05-01T09:47:38.691Z,100237.00
2023-05-01T09:50:05.776Z,100234.31
2023-05-01T09:52:33.943Z,100226.75
2023-05-01T09:55:18.361Z,100233.06
2023-05-01T09:57:47.131Z,100222.00
2023-05-01T10:02:50.049Z,100217.19
2023-05-01T10:05:17.657Z,100221.59
2023-05-01T10:07:57.661Z,100216.28
2023-05-01T10:10:24.725Z,100210.97
2023-05-01T10:12:51.597Z,100210.41
2023-05-01T10:16:25.425Z,100206.72
2023-05-01T10:19:17.266Z,100207.41
2023-05-01T10:21:44.236Z,100200.88
2023-05-01T10:24:11.224Z,100201.94
2023-05-01T10:26:38.131Z,100193.91
2023-05-01T10:29:04.726Z,100192.47
2023-05-01T10:31:33.226Z,100184.53
2023-05-01T10:34:03.385Z,100188.09
2023-05-01T10:36:55.556Z,100186.91
2023-05-01T10:39:32.527Z,100172.34
2023-05-01T10:41:59.090Z,100181.69
2023-05-01T10:44:27.160Z,100176.72
2023-05-01T10:46:54.587Z,100163.88
2023-05-01T10:51:59.259Z,100169.00
2023-05-01T10:54:27.078Z,100169.66
2023-05-01T10:56:58.668Z,100169.88
2023-05-01T10:59:26.153Z,100171.91
2023-05-01T11:01:53.832Z,100165.87
2023-05-01T11:04:59.613Z,100170.03
2023-05-01T11:08:32.795Z,100173.56
2023-05-01T11:25:17.393Z,100153.94
2023-05-01T11:30:17.554Z,100146.47
2023-05-01T11:32:46.248Z,100147.53
2023-05-01T11:35:23.787Z,100147.91
2023-05-01T11:37:51.474Z,100127.34
2023-05-01T11:43:58.623Z,100138.13
2023-05-01T11:46:33.800Z,100129.94
2023-05-01T11:49:01.768Z,100133.91
2023-05-01T11:51:29.092Z,100139.09
2023-05-01T11:54:00.648Z,100137.41
2023-05-01T11:56:27.717Z,100127.59
2023-05-01T12:01:45.122Z,100131.47
2023-05-01T12:04:13.168Z,100126.78
2023-05-01T12:06:45.705Z,100129.44
2023-05-01T12:13:13.462Z,100117.94
2023-05-01T12:15:43.450Z,100110.84
2023-05-01T12:18:11.298Z,100120.44
2023-05-01T12:20:43.564Z,100111.41
2023-05-01T12:23:16.406Z,100108.78
2023-05-01T12:25:44.883Z,100103.19
2023-05-01T12:28:14.548Z,100099.34
2023-05-01T12:30:42.705Z,100098.37
2023-05-01T12:33:20.604Z,100087.41
2023-05-01T12:35:49.273Z,100089.28
2023-05-01T12:38:23.593Z,100086.22
2023-05-01T12:40:57.890Z,100091.16
2023-05-01T12:43:44.395Z,100084.81
2023-05-01T12:46:14.709Z,100083.25
2023-05-01T12:48:43.218Z,100075.63
2023-05-01T12:51:09.976Z,100067.13
2023-05-01T12:54:20.507Z,100070.78
2023-05-01T12:57:43.332Z,100066.84
2023-05-01T13:00:10.727Z,100062.50
2023-05-01T13:02:38.060Z,100058.41
2023-05-01T13:05:10.221Z,100053.91
2023-05-01T13:07:38.169Z,100048.53
2023-05-01T13:10:06.403Z,100053.44
2023-05-01T13:12:38.482Z,100048.88
2023-05-01T13:15:05.707Z,100058.09
2023-05-01T13:17:33.070Z,100062.41
2023-05-01T13:20:03.739Z,100045.66
2023-05-01T13:22:33.751Z,100045.09
2023-05-01T13:25:03.041Z,100039.25
2023-05-01T13:27:30.278Z,100046.00
2023-05-01T13:29:59.555Z,100040.72
2023-05-01T13:32:26.867Z,100042.03
2023-05-01T13:34:58.294Z,100031.91
2023-05-01T13:37:24.932Z,100037.22
2023-05-01T13:39:58.271Z,100023.41
2023-05-01T13:42:25.174Z,100024.81
2023-05-01T13:44:54.930Z,100017.88
2023-05-01T13:47:26.469Z,100021.72
2023-05-01T13:49:53.368Z,100013.34
2023-05-01T13:52:20.796Z,100014.41
2023-05-01T13:54:48.538Z,100015.69
2023-05-01T13:57:19.725Z,100007.50
2023-05-01T13:59:47.865Z,100001.19
2023-05-01T14:02:27.677Z,100002.13
2023-05-01T14:04:55.204Z,99999.44
2023-05-01T14:07:24.294Z,100000.75
2023-05-01T14:09:56.318Z,100001.06
2023-05-01T14:12:30.876Z,100000.47
2023-05-01T14:14:59.551Z,100002.44
2023-05-01T14:17:31.579Z,100000.78
2023-05-01T14:19:58.369Z,100000.34
2023-05-01T14:22:29.398Z,100002.03
2023-05-01T14:24:56.030Z,99983.00
2023-05-01T14:27:22.741Z,99984.19
2023-05-01T14:29:49.760Z,99987.91
2023-05-01T14:32:16.341Z,99984.75
2023-05-01T14:34:43.196Z,99985.59
2023-05-01T14:37:10.151Z,99971.09
2023-05-01T14:39:36.762Z,99965.97
2023-05-01T14:42:05.183Z,99970.81
2023-05-01T14:44:31.780Z,99970.53
2023-05-01T14:46:59.259Z,99964.00
2023-05-01T14:49:27.407Z,99964.66
2023-05-01T14:51:54.180Z,99968.28
2023-05-01T14:54:21.357Z,99959.50
2023-05-01T14:56:49.016Z,99951.09
2023-05-01T14:59:16.384Z,99948.37
2023-05-01T15:01:44.158Z,99955.06
2023-05-01T15:04:11.757Z,99950.78
2023-05-01T15:06:38.678Z,99948.22
2023-05-01T15:09:05.476Z,99953.34
2023-05-01T15:11:32.154Z,99957.13
2023-05-01T15:13:58.842Z,99949.41
2023-05-01T15:16:26.640Z,99951.88
2023-05-01T15:18:53.362Z,99955.25
2023-05-01T15:21:19.995Z,99956.72
2023-05-01T15:23:46.647Z,99953.38
2023-05-01T15:26:13.894Z,99946.84
2023-05-01T15:28:40.599Z,99948.91
2023-05-01T15:31:07.202Z,99942.28
2023-05-01T15:33:33.851Z,99946.28
2023-05-01T15:36:00.531Z,99939.75
2023-05-01T15:38:28.289Z,99942.25
2023-05-01T15:40:54.905Z,99940.50
2023-05-01T15:43:22.400Z,99939.41
2023-05-01T15:45:49.975Z,99946.44
2023-05-01T15:48:16.766Z,99938.50
2023-05-01T15:50:43.476Z,99941.88
2023-05-01T15:53:10.056Z,99940.13
2023-05-01T15:55:36.841Z,99941.44
2023-05-01T15:58:06.381Z,99943.66
2023-05-01T16:00:35.786Z,99943.66
2023-05-01T16:03:04.471Z,99945.41
2023-05-01T16:05:31.652Z,99946.00
2023-05-01T16:08:00.521Z,99942.31
2023-05-01T16:10:27.700Z,99937.19
2023-05-01T16:12:54.391Z,99935.69
2023-05-01T16:15:22.694Z,99940.44
2023-05-01T16:17:51.486Z,99935.78
2023-05-01T16:20:18.275Z,99940.44
2023-05-01T16:22:45.015Z,99930.84
2023-05-01T16:25:12.701Z,99930.06
2023-05-01T16:27:41.340Z,99930.94
2023-05-01T16:30:09.939Z,99925.91
2023-05-01T16:32:36.898Z,99926.28
2023-05-01T16:35:05.482Z,99939.56
2023-05-01T16:37:34.151Z,99927.63
2023-05-01T16:40:00.991Z,99921.25
2023-05-01T16:42:27.937Z,99923.34
2023-05-01T16:44:56.500Z,99922.16
2023-05-01T16:47:23.361Z,99927.28
2023-05-01T16:49:51.209Z,99931.22
2023-05-01T16:52:17.840Z,99928.22
2023-05-01T16:54:48.208Z,99920.59
2023-05-01T16:57:17.253Z,99912.34
2023-05-01T16:59:43.839Z,99920.81
2023-05-01T17:02:10.875Z,99920.31
2023-05-01T17:04:37.646Z,99927.72
2023-05-01T17:07:04.227Z,99917.19
2023-05-01T17:09:31.185Z,99925.84
2023-05-01T17:11:59.074Z,99921.94
2023-05-01T17:14:28.610Z,99928.44
2023-05-01T17:16:55.230Z,99913.78
2023-05-01T17:19:21.972Z,99919.06
2023-05-01T17:21:48.556Z,99925.44
2023-05-01T17:24:15.734Z,99920.50
2023-05-01T17:26:42.504Z,99917.00
2023-05-01T17:29:09.279Z,99916.22
2023-05-01T17:31:36.444Z,99915.06
2023-05-01T17:36:49.052Z,99907.72
2023-05-01T17:39:15.618Z,99908.56
2023-05-01T17:41:42.234Z,99917.78
2023-05-01T17:44:08.818Z,99916.87
2023-05-01T17:46:35.974Z,99915.59
2023-05-01T17:49:04.399Z,99914.78
2023-05-01T17:51:31.050Z,99912.03
2023-05-01T17:53:57.963Z,99905.81
2023-05-01T17:56:24.615Z,99912.84
2023-05-01T17:58:51.221Z,99903.41
2023-05-01T18:01:17.836Z,99905.25
2023-05-01T18:03:45.083Z,99903.50
2023-05-01T18:06:11.849Z,99906.88
2023-05-01T18:08:38.423Z,99908.03
2023-05-01T18:11:05.350Z,99908.25
2023-05-01T18:13:37.969Z,99904.78
2023-05-01T18:16:05.008Z,99919.72
2023-05-01T18:18:31.747Z,99914.59
2023-05-01T18:20:58.379Z,99914.84
2023-05-01T18:23:27.991Z,99916.69
2023-05-01T18:25:55.877Z,99912.63
2023-05-01T18:28:22.761Z,99916.09
2023-05-01T18:30:49.335Z,99914.03
2023-05-01T18:33:16.009Z,99917.37
2023-05-01T18:35:42.838Z,99916.00
2023-05-01T18:38:10.588Z,99915.66
2023-05-01T18:40:37.874Z,99921.19
2023-05-01T18:43:23.305Z,99923.38
2023-05-01T18:45:49.839Z,99923.94
2023-05-01T18:48:16.547Z,99930.06
2023-05-01T18:50:54.072Z,99924.94
2023-05-01T18:54:24.723Z,99928.09
2023-05-01T18:57:36.060Z,99932.31
2023-05-01T19:00:03.024Z,99936.47
2023-05-01T19:02:29.584Z,99939.34
2023-05-01T19:04:58.007Z,99932.50
2023-05-01T19:07:26.327Z,99943.16
2023-05-01T19:10:15.246Z,99938.13
2023-05-01T19:12:42.218Z,99940.31
2023-05-01T19:15:09.548Z,99943.94
2023-05-01T19:17:36.163Z,99943.97
2023-05-01T19:20:04.502Z,99947.09
2023-05-01T19:22:31.187Z,99936.12
2023-05-01T19:24:57.728Z,99936.12
2023-05-01T19:27:31.185Z,99934.31
2023-05-01T19:30:04.359Z,99939.47
2023-05-01T19:32:36.761Z,99940.69
2023-05-01T19:35:03.531Z,99938.22
2023-05-01T19:37:30.217Z,99937.06
2023-05-01T19:39:56.924Z,99943.25
2023-05-01T19:42:23.585Z,99940.22
2023-05-01T19:44:50.179Z,99939.63
2023-05-01T19:47:16.741Z,99934.56
2023-05-01T19:49:43.788Z,99938.03
2023-05-01T19:52:10.465Z,99933.97
2023-05-01T19:54:37.255Z,99930.03
2023-05-01T19:57:04.474Z,99941.09
2023-05-01T19:59:31.063Z,99937.25
2023-05-01T20:01:59.608Z,99942.41
2023-05-01T20:04:27.820Z,99941.31
2023-05-01T20:06:54.489Z,99942.06
2023-05-01T20:09:21.082Z,99942.78
2023-05-01T20:11:47.675Z,99944.47
2023-05-01T20:14:15.084Z,99950.59
2023-05-01T20:16:42.175Z,99949.69
2023-05-01T20:21:44.044Z,99947.56
2023-05-01T20:24:10.586Z,99939.03
2023-05-01T20:26:37.274Z,99949.66
2023-05-01T20:29:47.097Z,99950.53
2023-05-01T20:32:25.784Z,99948.94
2023-05-01T20:34:55.231Z,99939.84
2023-05-01T20:37:21.797Z,99944.69
2023-05-01T20:39:48.633Z,99951.44
2023-05-01T20:42:15.157Z,99941.66
2023-05-01T20:44:41.713Z,99954.38
2023-05-01T20:49:43.741Z,99946.72
2023-05-01T20:52:10.805Z,99954.87
2023-05-01T20:54:37.369Z,99960.69
2023-05-01T20:57:04.047Z,99953.06
2023-05-01T20:59:30.893Z,99961.63
2023-05-01T21:02:28.649Z,99958.00
2023-05-01T21:08:24.591Z,99949.25
2023-05-01T21:10:51.140Z,99957.69
2023-05-01T21:13:18.888Z,99962.41
2023-05-01T21:15:45.444Z,99967.50
2023-05-01T21:18:14.072Z,99962.31
2023-05-01T21:20:41.338Z,99969.94
2023-05-01T21:23:08.116Z,99969.97
2023-05-01T21:25:34.735Z,99968.53
2023-05-01T21:28:05.470Z,99967.84
2023-05-01T21:30:36.181Z,99971.97
2023-05-01T21:33:05.626Z,99970.16
2023-05-01T21:35:32.683Z,99966.56
2023-05-01T21:37:59.899Z,99980.53
2023-05-01T21:40:27.225Z,99969.81
2023-05-01T21:42:54.601Z,99968.69
2023-05-01T21:45:21.657Z,99978.44
2023-05-01T21:50:23.630Z,99973.75
2023-05-01T21:52:50.449Z,99977.47
2023-05-01T21:55:22.436Z,99978.94
2023-05-01T21:57:53.252Z,99969.97
2023-05-01T22:00:21.184Z,99976.16
2023-05-01T22:03:28.841Z,99975.66
2023-05-01T22:06:26.816Z,99977.13
2023-05-01T22:09:02.006Z,99973.88
2023-05-01T22:11:28.910Z,99967.72
2023-05-01T22:13:55.724Z,99963.66
2023-05-01T22:16:22.655Z,99974.97
2023-05-01T22:18:55.419Z,99974.66
2023-05-01T22:21:22.215Z,99971.91
2023-05-01T22:23:48.822Z,99973.56
2023-05-01T22:26:18.172Z,99965.28
2023-05-01T22:28:45.453Z,99968.66
2023-05-01T22:31:12.045Z,99968.34
2023-05-01T22:33:44.088Z,99969.63
2023-05-01T22:36:10.634Z,99962.37
2023-05-01T22:38:37.199Z,99973.25
2023-05-01T22:41:03.963Z,99960.44
2023-05-01T22:43:46.809Z,99963.63
2023-05-01T22:46:23.822Z,99966.28
2023-05-01T22:49:04.278Z,99962.84
2023-05-01T22:51:31.200Z,99959.47
2023-05-01T22:53:57.753Z,99961.06
2023-05-01T22:56:26.265Z,99952.81
2023-05-01T22:58:52.895Z,99954.09
2023-05-01T23:01:19.803Z,99960.09
2023-05-01T23:03:46.650Z,99963.34
2023-05-01T23:06:13.379Z,99965.22
2023-05-01T23:08:39.973Z,99953.75
2023-05-01T23:11:06.529Z,99966.41
2023-05-01T23:13:33.252Z,99964.78
2023-05-01T23:16:00.250Z,99953.13
2023-05-01T23:18:45.731Z,99970.16
2023-05-01T23:21:17.598Z,99962.22
2023-05-01T23:23:45.955Z,99963.00
2023-05-01T23:26:25.504Z,99966.59
2023-05-01T23:28:53.171Z,99965.78
2023-05-01T23:31:26.991Z,99962.66
2023-05-01T23:33:54.065Z,99962.53
2023-05-01T23:36:21.268Z,99958.28
2023-05-01T23:38:48.302Z,99947.59
2023-05-01T23:41:15.333Z,99960.41
2023-05-01T23:43:53.892Z,99959.28
2023-05-01T23:46:38.957Z,99955.63
2023-05-01T23:49:05.835Z,99949.28
2023-05-01T23:51:32.841Z,99956.13
2023-05-01T23:54:00.198Z,99956.56
2023-05-01T23:56:26.781Z,99950.59
2023-05-01T23:58:55.981Z,99966.91
